createdAt,value
2023-04-16T00:04:33.528Z,99.90
2023-04-16T00:09:36.028Z,99.90
2023-04-16T00:14:38.414Z,99.90
2023-04-16T00:19:41.086Z,99.90
2023-04-16T00:24:43.532Z,99.90
2023-04-16T00:29:45.949Z,99.90
2023-04-16T00:34:48.380Z,99.90
2023-04-16T00:39:51.169Z,99.90
2023-04-16T00:44:53.588Z,99.90
2023-04-16T00:49:56.083Z,99.90
2023-04-16T00:54:59.786Z,99.90
2023-04-16T01:00:03.122Z,99.90
2023-04-16T01:05:06.218Z,99.90
2023-04-16T01:10:09.074Z,99.90
2023-04-16T01:15:11.792Z,99.90
2023-04-16T01:20:14.588Z,99.90
2023-04-16T01:25:17.112Z,99.90
2023-04-16T01:30:20.454Z,99.90
2023-04-16T01:35:38.252Z,99.90
2023-04-16T01:40:40.794Z,99.90
2023-04-16T01:45:43.252Z,99.90
2023-04-16T01:50:47.595Z,99.90
2023-04-16T01:55:49.977Z,99.90
2023-04-16T02:00:52.454Z,99.90
2023-04-16T02:05:55.001Z,99.90
2023-04-16T02:10:57.871Z,99.90
2023-04-16T02:16:01.485Z,99.90
2023-04-16T02:21:27.572Z,99.90
2023-04-16T02:26:30.075Z,99.90
2023-04-16T02:31:38.390Z,99.90
2023-04-16T02:36:42.479Z,99.90
2023-04-16T02:41:45.395Z,99.90
2023-04-16T02:46:48.704Z,99.90
2023-04-16T02:51:51.290Z,99.90
2023-04-16T02:56:53.758Z,99.90
2023-04-16T03:01:56.233Z,99.90
2023-04-16T03:06:58.766Z,99.90
2023-04-16T03:12:04.497Z,99.90
2023-04-16T03:17:07.179Z,99.90
2023-04-16T03:22:09.621Z,99.90
2023-04-16T03:27:12.071Z,99.90
2023-04-16T03:32:14.614Z,99.90
2023-04-16T03:37:17.378Z,99.90
2023-04-16T03:42:19.765Z,99.90
2023-04-16T03:47:22.274Z,99.90
2023-04-16T03:52:26.951Z,99.90
2023-04-16T03:57:29.701Z,99.90
2023-04-16T04:02:37.992Z,99.90
2023-04-16T04:07:40.569Z,99.90
2023-04-16T04:12:43.482Z,99.90
2023-04-16T04:17:46.221Z,99.90
2023-04-16T04:22:49.869Z,99.90
2023-04-16T04:27:53.023Z,99.90
2023-04-16T04:32:55.571Z,99.90
2023-04-16T04:37:58.181Z,99.90
2023-04-16T04:43:00.691Z,99.90
2023-04-16T04:48:03.229Z,99.90
2023-04-16T04:53:10.064Z,99.90
2023-04-16T04:58:13.523Z,99.90
2023-04-16T05:03:22.004Z,99.90
2023-04-16T05:08:24.548Z,99.90
2023-04-16T05:13:27.199Z,99.90
2023-04-16T05:18:29.604Z,99.90
2023-04-16T05:23:32.026Z,99.90
2023-04-16T05:28:34.436Z,99.90
2023-04-16T05:33:36.851Z,99.90
2023-04-16T05:38:39.211Z,99.90
2023-04-16T05:43:41.721Z,99.90
2023-04-16T05:48:44.135Z,99.90
2023-04-16T05:53:46.636Z,99.90
2023-04-16T05:58:49.053Z,99.90
2023-04-16T06:03:51.706Z,99.90
2023-04-16T06:08:54.194Z,99.90
2023-04-16T06:13:56.598Z,99.90
2023-04-16T06:18:59.245Z,99.90
2023-04-16T06:24:01.898Z,99.90
2023-04-16T06:29:04.278Z,99.90
2023-04-16T06:34:06.700Z,99.90
2023-04-16T06:39:09.347Z,99.90
2023-04-16T06:44:11.949Z,99.90
2023-04-16T06:49:14.308Z,99.90
2023-04-16T06:54:16.915Z,99.90
2023-04-16T06:59:19.323Z,99.90
2023-04-16T07:04:21.918Z,99.90
2023-04-16T07:09:24.930Z,99.90
2023-04-16T07:14:27.436Z,99.90
2023-04-16T07:19:32.555Z,99.90
2023-04-16T07:24:35.833Z,99.90
2023-04-16T07:29:38.220Z,99.90
2023-04-16T07:34:40.730Z,99.90
2023-04-16T07:39:43.178Z,99.90
2023-04-16T07:44:45.648Z,99.90
2023-04-16T07:49:48.017Z,99.90
2023-04-16T07:54:51.772Z,99.90
2023-04-16T07:59:54.168Z,99.90
2023-04-16T08:04:56.755Z,99.90
2023-04-16T08:09:59.250Z,99.90
2023-04-16T08:15:01.814Z,99.90
2023-04-16T08:20:04.899Z,99.90
2023-04-16T08:25:07.983Z,99.90
2023-04-16T08:30:10.619Z,99.90
2023-04-16T08:35:13.280Z,99.90
2023-04-16T08:40:15.916Z,99.90
2023-04-16T08:45:18.772Z,99.90
2023-04-16T08:50:25.468Z,99.90
2023-04-16T08:55:38.839Z,99.90
2023-04-16T09:00:42.203Z,99.90
2023-04-16T09:05:44.802Z,99.90
2023-04-16T09:10:48.352Z,99.90
2023-04-16T09:15:54.372Z,99.90
2023-04-16T09:20:57.291Z,99.90
2023-04-16T09:26:00.173Z,99.90
2023-04-16T09:31:14.257Z,99.90
2023-04-16T09:36:23.215Z,99.90
2023-04-16T09:41:31.271Z,99.90
2023-04-16T09:46:43.149Z,99.90
2023-04-16T09:51:48.098Z,97.90
2023-04-16T09:56:50.497Z,94.50
2023-04-16T10:02:15.802Z,93.30
2023-04-16T10:07:19.523Z,94.90
2023-04-16T10:12:22.225Z,94.70
2023-04-16T10:17:26.430Z,90.90
2023-04-16T10:22:28.898Z,91.30
2023-04-16T10:27:31.746Z,87.30
2023-04-16T10:32:36.117Z,90.10
2023-04-16T10:37:40.979Z,86.70
2023-04-16T10:42:57.395Z,83.00
2023-04-16T10:47:59.857Z,77.50
2023-04-16T10:53:17.878Z,74.60
2023-04-16T10:58:35.980Z,73.80
2023-04-16T11:03:42.761Z,71.10
2023-04-16T11:08:54.007Z,66.00
2023-04-16T11:13:57.246Z,65.40
2023-04-16T11:18:59.768Z,64.90
2023-04-16T11:24:02.166Z,63.60
2023-04-16T11:29:14.350Z,68.00
2023-04-16T11:34:17.994Z,73.40
2023-04-16T11:39:20.673Z,78.10
2023-04-16T11:44:23.919Z,77.90
2023-04-16T11:49:32.735Z,84.90
2023-04-16T11:54:36.686Z,89.90
2023-04-16T12:00:01.362Z,90.80
2023-04-16T12:05:38.929Z,91.30
2023-04-16T12:10:55.060Z,94.10
2023-04-16T12:15:57.567Z,94.30
2023-04-16T12:21:04.528Z,95.90
2023-04-16T12:26:10.442Z,99.10
2023-04-16T12:31:14.624Z,99.90
2023-04-16T12:36:18.747Z,99.90
2023-04-16T12:41:22.016Z,99.90
2023-04-16T12:46:24.564Z,99.90
2023-04-16T12:51:27.149Z,99.90
2023-04-16T12:56:30.446Z,99.90
2023-04-16T13:01:36.168Z,99.90
2023-04-16T13:06:38.917Z,99.90
2023-04-16T13:11:41.819Z,99.90
2023-04-16T13:16:44.380Z,99.90
2023-04-16T13:21:47.050Z,99.90
2023-04-16T13:26:50.519Z,97.30
2023-04-16T13:31:53.328Z,98.00
2023-04-16T13:36:56.189Z,97.10
2023-04-16T13:41:58.654Z,95.30
2023-04-16T13:47:01.170Z,93.70
2023-04-16T13:52:04.074Z,92.20
2023-04-16T13:57:06.703Z,90.90
2023-04-16T14:02:10.920Z,90.50
2023-04-16T14:07:14.705Z,89.60
2023-04-16T14:12:17.203Z,89.60
2023-04-16T14:17:19.700Z,89.80
2023-04-16T14:22:22.136Z,87.90
2023-04-16T14:27:24.622Z,83.20
2023-04-16T14:32:27.775Z,80.30
2023-04-16T14:37:31.323Z,78.80
2023-04-16T14:42:33.824Z,78.30
2023-04-16T14:47:37.789Z,79.60
2023-04-16T14:52:40.677Z,82.30
2023-04-16T14:57:43.181Z,86.20
2023-04-16T15:02:47.291Z,88.90
2023-04-16T15:07:50.335Z,89.40
2023-04-16T15:12:52.758Z,90.10
2023-04-16T15:17:57.072Z,90.30
2023-04-16T15:23:00.023Z,88.70
2023-04-16T15:28:02.741Z,86.30
2023-04-16T15:33:05.446Z,84.00
2023-04-16T15:38:08.566Z,82.90
2023-04-16T15:43:11.061Z,83.60
2023-04-16T15:48:13.572Z,85.90
2023-04-16T15:53:16.550Z,87.80
2023-04-16T15:58:19.243Z,89.30
2023-04-16T16:03:22.188Z,88.10
2023-04-16T16:08:25.420Z,89.50
2023-04-16T16:13:28.187Z,90.30
2023-04-16T16:18:31.104Z,90.90
2023-04-16T16:23:33.878Z,91.80
2023-04-16T16:28:39.303Z,93.00
2023-04-16T16:33:41.738Z,93.70
2023-04-16T16:38:46.546Z,94.50
2023-04-16T16:43:49.047Z,95.30
2023-04-16T16:48:51.528Z,95.80
2023-04-16T16:53:53.922Z,96.70
2023-04-16T16:58:56.798Z,97.10
2023-04-16T17:03:59.414Z,98.00
2023-04-16T17:09:02.415Z,98.60
2023-04-16T17:14:04.842Z,99.70
2023-04-16T17:19:07.283Z,99.90
2023-04-16T17:24:10.219Z,99.90
2023-04-16T17:29:12.941Z,99.90
2023-04-16T17:34:15.729Z,99.90
2023-04-16T17:39:18.352Z,99.90
2023-04-16T17:44:21.090Z,99.90
2023-04-16T17:49:23.617Z,99.90
2023-04-16T17:54:26.272Z,99.90
2023-04-16T17:59:28.942Z,99.90
2023-04-16T18:04:31.864Z,99.90
2023-04-16T18:09:34.997Z,99.90
2023-04-16T18:14:38.841Z,99.90
2023-04-16T18:19:43.776Z,99.90
2023-04-16T18:24:46.569Z,99.90
2023-04-16T18:29:51.112Z,99.90
2023-04-16T18:34:54.061Z,99.90
2023-04-16T18:39:58.048Z,99.90
2023-04-16T18:45:01.088Z,99.90
2023-04-16T18:50:03.690Z,99.90
2023-04-16T18:55:06.335Z,99.90
2023-04-16T19:00:12.656Z,99.90
2023-04-16T19:05:15.496Z,99.90
2023-04-16T19:10:17.946Z,99.90
2023-04-16T19:15:20.387Z,99.90
2023-04-16T19:20:22.851Z,99.90
2023-04-16T19:25:25.506Z,99.90
2023-04-16T19:30:28.924Z,99.90
2023-04-16T19:35:31.516Z,99.90
2023-04-16T19:40:34.015Z,99.90
2023-04-16T19:45:36.549Z,99.90
2023-04-16T19:50:40.711Z,99.90
2023-04-16T19:55:43.246Z,99.90
2023-04-16T20:00:46.488Z,99.90
2023-04-16T20:05:49.953Z,99.90
2023-04-16T20:10:54.627Z,99.90
2023-04-16T20:15:57.784Z,99.90
2023-04-16T20:21:04.083Z,99.90
2023-04-16T20:26:06.934Z,99.90
2023-04-16T20:31:09.535Z,99.90
2023-04-16T20:36:12.314Z,99.90
2023-04-16T20:41:20.997Z,99.90
2023-04-16T20:46:24.272Z,99.90
2023-04-16T20:51:27.700Z,99.90
2023-04-16T20:56:30.174Z,99.90
2023-04-16T21:01:33.248Z,99.90
2023-04-16T21:06:38.657Z,99.90
2023-04-16T21:11:41.290Z,99.90
2023-04-16T21:16:43.735Z,99.90
2023-04-16T21:21:46.680Z,99.90
2023-04-16T21:26:49.133Z,99.90
2023-04-16T21:31:51.948Z,99.90
2023-04-16T21:36:54.860Z,99.90
2023-04-16T21:41:57.777Z,99.90
2023-04-16T21:47:00.329Z,99.90
2023-04-16T21:52:02.902Z,99.90
2023-04-16T21:57:05.394Z,99.90
2023-04-16T22:02:07.999Z,99.90
2023-04-16T22:07:11.807Z,99.90
2023-04-16T22:12:14.682Z,99.90
2023-04-16T22:17:17.383Z,99.90
2023-04-16T22:22:20.628Z,99.90
2023-04-16T22:27:24.275Z,99.90
2023-04-16T22:32:27.259Z,99.90
2023-04-16T22:37:29.824Z,99.90
2023-04-16T22:42:32.303Z,99.90
2023-04-16T22:47:34.879Z,99.90
2023-04-16T22:52:37.438Z,99.90
2023-04-16T22:57:39.967Z,99.90
2023-04-16T23:02:43.167Z,99.90
2023-04-16T23:07:45.717Z,99.90
2023-04-16T23:12:48.539Z,99.90
2023-04-16T23:17:51.091Z,99.90
2023-04-16T23:22:53.567Z,99.90
2023-04-16T23:27:56.716Z,99.90
2023-04-16T23:32:59.250Z,99.90
2023-04-16T23:38:01.977Z,99.90
2023-04-16T23:43:05.711Z,99.90
2023-04-16T23:48:08.202Z,99.90
2023-04-16T23:53:10.820Z,99.90
2023-04-16T23:58:13.338Z,99.90
